createdAt,value
2019-05-07T00:01:12.299Z,7.30
2019-05-07T00:03:45.865Z,7.47
2019-05-07T00:06:19.357Z,8.80
2019-05-07T00:08:52.863Z,8.83
2019-05-07T00:11:26.339Z,13.27
2019-05-07T00:13:59.719Z,8.23
2019-05-07T00:16:33.128Z,9.00
2019-05-07T00:19:06.596Z,9.97
2019-05-07T00:21:42.102Z,8.83
2019-05-07T00:24:15.123Z,7.40
2019-05-07T00:26:48.556Z,8.60
2019-05-07T00:29:22.522Z,9.17
2019-05-07T00:31:55.954Z,7.43
2019-05-07T00:34:32.797Z,7.87
2019-05-07T00:37:07.798Z,8.77
2019-05-07T00:39:45.546Z,7.30
2019-05-07T00:42:22.052Z,8.90
2019-05-07T00:44:57.302Z,8.90
2019-05-07T00:47:32.801Z,6.83
2019-05-07T00:50:08.804Z,8.80
2019-05-07T00:52:42.970Z,8.97
2019-05-07T00:55:16.638Z,9.70
2019-05-07T00:57:50.054Z,9.53
2019-05-07T01:00:23.524Z,8.80
2019-05-07T01:02:56.944Z,10.27
2019-05-07T01:05:32.455Z,9.57
2019-05-07T01:08:05.622Z,8.17
2019-05-07T01:10:39.019Z,9.47
2019-05-07T01:13:12.771Z,7.83
2019-05-07T01:15:46.312Z,9.17
2019-05-07T01:18:19.735Z,10.10
2019-05-07T01:20:53.507Z,10.93
2019-05-07T01:23:26.926Z,8.30
2019-05-07T01:26:00.394Z,8.20
2019-05-07T01:28:52.861Z,8.60
2019-05-07T01:31:29.474Z,10.83
2019-05-07T01:34:07.543Z,8.13
2019-05-07T01:36:42.736Z,10.43
2019-05-07T01:39:16.225Z,8.70
2019-05-07T01:41:49.621Z,10.23
2019-05-07T01:44:23.025Z,9.17
2019-05-07T01:46:56.413Z,9.27
2019-05-07T01:49:29.815Z,8.57
2019-05-07T01:52:03.213Z,8.43
2019-05-07T01:54:36.637Z,10.97
2019-05-07T01:57:12.112Z,10.77
2019-05-07T01:59:45.209Z,8.60
2019-05-07T02:02:23.305Z,8.03
2019-05-07T02:05:07.156Z,8.83
2019-05-07T02:07:42.921Z,11.50
2019-05-07T02:10:24.298Z,10.87
2019-05-07T02:12:57.691Z,8.80
2019-05-07T02:15:32.308Z,9.77
2019-05-07T02:18:05.789Z,11.10
2019-05-07T02:20:39.216Z,9.13
2019-05-07T02:23:12.919Z,9.20
2019-05-07T02:25:46.401Z,8.73
2019-05-07T02:28:19.795Z,11.97
2019-05-07T02:30:53.601Z,9.27
2019-05-07T02:33:27.081Z,7.80
2019-05-07T02:36:02.983Z,8.87
2019-05-07T02:38:53.446Z,11.13
2019-05-07T02:41:28.501Z,10.90
2019-05-07T02:44:04.285Z,8.83
2019-05-07T02:46:54.061Z,9.80
2019-05-07T02:49:32.716Z,12.10
2019-05-07T02:52:13.389Z,9.23
2019-05-07T02:55:04.320Z,9.37
2019-05-07T02:57:37.819Z,9.07
2019-05-07T03:00:14.606Z,9.13
2019-05-07T03:02:47.081Z,10.70
2019-05-07T03:05:22.966Z,8.50
2019-05-07T03:07:55.700Z,10.33
2019-05-07T03:10:29.176Z,12.93
2019-05-07T03:13:03.165Z,11.50
2019-05-07T03:15:36.930Z,10.07
2019-05-07T03:18:13.486Z,9.13
2019-05-07T03:20:53.264Z,10.00
2019-05-07T03:23:29.681Z,10.57
2019-05-07T03:26:07.704Z,9.90
2019-05-07T03:28:53.565Z,12.10
2019-05-07T03:31:37.606Z,9.77
2019-05-07T03:34:18.460Z,12.23
2019-05-07T03:36:56.571Z,9.50
2019-05-07T03:39:28.674Z,11.17
2019-05-07T03:42:03.371Z,11.73
2019-05-07T03:44:38.627Z,13.13
2019-05-07T03:47:16.189Z,11.73
2019-05-07T03:49:49.668Z,9.53
2019-05-07T03:52:24.476Z,10.37
2019-05-07T03:54:58.106Z,11.20
2019-05-07T03:57:33.304Z,11.70
2019-05-07T04:00:08.786Z,12.03
2019-05-07T04:02:43.781Z,13.10
2019-05-07T04:05:17.574Z,12.37
2019-05-07T04:07:53.722Z,11.67
2019-05-07T04:10:26.246Z,12.30
2019-05-07T04:12:59.664Z,11.63
2019-05-07T04:15:33.341Z,11.83
2019-05-07T04:18:06.769Z,11.40
2019-05-07T04:20:43.182Z,15.33
2019-05-07T04:23:15.315Z,11.67
2019-05-07T04:25:53.222Z,12.27
2019-05-07T04:28:28.212Z,13.00
2019-05-07T04:31:03.515Z,14.40
2019-05-07T04:33:38.647Z,10.37
2019-05-07T04:36:14.311Z,12.77
2019-05-07T04:38:47.886Z,9.97
2019-05-07T04:41:23.319Z,13.97
2019-05-07T04:43:56.514Z,10.23
2019-05-07T04:46:33.023Z,9.20
2019-05-07T04:49:05.082Z,10.47
2019-05-07T04:51:43.534Z,11.23
2019-05-07T04:54:17.095Z,12.17
2019-05-07T04:56:53.150Z,11.60
2019-05-07T04:59:25.653Z,10.00
2019-05-07T05:02:03.878Z,13.57
2019-05-07T05:04:35.999Z,12.63
2019-05-07T05:07:09.527Z,10.00
2019-05-07T05:09:42.962Z,11.60
2019-05-07T05:12:16.381Z,13.97
2019-05-07T05:14:49.820Z,12.23
2019-05-07T05:17:23.232Z,11.03
2019-05-07T05:19:56.655Z,12.37
2019-05-07T05:22:48.238Z,10.93
2019-05-07T05:25:29.214Z,13.27
2019-05-07T05:28:05.515Z,11.27
2019-05-07T05:30:42.424Z,10.83
2019-05-07T05:33:15.698Z,10.17
2019-05-07T05:35:49.099Z,9.10
2019-05-07T05:38:22.566Z,11.00
2019-05-07T05:40:56.010Z,11.97
2019-05-07T05:43:36.496Z,13.40
2019-05-07T05:46:12.182Z,10.23
2019-05-07T05:48:45.626Z,10.07
2019-05-07T05:51:22.759Z,13.77
2019-05-07T05:54:02.963Z,11.87
2019-05-07T05:56:38.125Z,10.43
2019-05-07T05:59:47.388Z,11.77
2019-05-07T06:02:08.236Z,10.90
2019-05-07T06:04:52.877Z,12.20
2019-05-07T06:07:27.978Z,12.50
2019-05-07T06:10:03.022Z,12.40
2019-05-07T06:12:42.719Z,11.40
2019-05-07T06:15:18.274Z,13.17
2019-05-07T06:18:18.738Z,11.73
2019-05-07T06:20:48.065Z,12.03
2019-05-07T06:23:23.150Z,12.30
2019-05-07T06:25:56.517Z,12.20
2019-05-07T06:28:29.944Z,9.80
2019-05-07T06:31:03.351Z,10.93
2019-05-07T06:33:36.792Z,9.13
2019-05-07T06:36:12.375Z,13.90
2019-05-07T06:38:47.137Z,10.83
2019-05-07T06:41:25.246Z,10.90
2019-05-07T06:44:02.044Z,12.90
2019-05-07T06:46:38.623Z,13.13
2019-05-07T06:49:12.681Z,12.33
2019-05-07T06:51:47.797Z,11.97
2019-05-07T06:54:22.562Z,11.23
2019-05-07T06:56:56.091Z,10.87
2019-05-07T06:59:42.378Z,10.13
2019-05-07T07:02:33.584Z,12.17
2019-05-07T07:05:26.330Z,14.23
2019-05-07T07:08:02.325Z,13.83
2019-05-07T07:10:53.846Z,11.33
2019-05-07T07:13:28.213Z,12.73
2019-05-07T07:16:02.047Z,11.90
2019-05-07T07:18:48.389Z,10.33
2019-05-07T07:21:13.453Z,11.90
2019-05-07T07:23:46.950Z,14.67
2019-05-07T07:26:22.070Z,11.30
2019-05-07T07:28:55.742Z,13.53
2019-05-07T07:31:36.581Z,13.47
2019-05-07T07:34:09.997Z,10.13
2019-05-07T07:37:01.805Z,11.60
2019-05-07T07:39:37.722Z,13.17
2019-05-07T07:42:12.397Z,12.20
2019-05-07T07:44:46.025Z,13.13
2019-05-07T07:47:19.445Z,12.13
2019-05-07T07:49:53.230Z,12.00
2019-05-07T07:52:26.658Z,12.17
2019-05-07T07:55:02.122Z,13.47
2019-05-07T07:57:45.983Z,11.30
2019-05-07T08:00:23.293Z,11.40
2019-05-07T08:02:58.242Z,11.00
2019-05-07T08:05:32.551Z,11.10
2019-05-07T08:08:06.231Z,10.73
2019-05-07T08:10:39.656Z,13.40
2019-05-07T08:13:13.119Z,10.93
2019-05-07T08:15:46.531Z,13.03
2019-05-07T08:18:22.154Z,12.57
2019-05-07T08:20:55.186Z,11.33
2019-05-07T08:23:28.576Z,12.67
2019-05-07T08:26:02.627Z,11.33
2019-05-07T08:28:36.085Z,12.57
2019-05-07T08:31:14.128Z,11.93
2019-05-07T08:33:52.142Z,9.90
2019-05-07T08:36:25.576Z,10.57
2019-05-07T08:38:59.019Z,10.40
2019-05-07T08:41:32.423Z,9.03
2019-05-07T08:44:15.572Z,9.83
2019-05-07T08:46:52.077Z,13.37
2019-05-07T08:49:35.777Z,11.03
2019-05-07T08:52:03.036Z,8.67
2019-05-07T08:54:35.974Z,10.37
2019-05-07T08:57:09.542Z,10.93
2019-05-07T08:59:57.172Z,9.43
2019-05-07T09:02:18.296Z,10.93
2019-05-07T09:04:52.258Z,10.23
2019-05-07T09:07:25.788Z,10.10
2019-05-07T09:09:59.204Z,9.93
2019-05-07T09:12:32.644Z,14.30
2019-05-07T09:15:07.471Z,12.70
2019-05-07T09:17:42.283Z,12.37
2019-05-07T09:20:16.456Z,10.77
2019-05-07T09:22:51.714Z,10.63
2019-05-07T09:25:25.046Z,11.63
2019-05-07T09:27:58.540Z,11.67
2019-05-07T09:30:49.460Z,12.87
2019-05-07T09:33:24.657Z,11.57
2019-05-07T09:35:58.066Z,12.03
2019-05-07T09:38:32.811Z,13.57
2019-05-07T09:41:09.536Z,10.53
2019-05-07T09:43:42.895Z,11.00
2019-05-07T09:46:16.285Z,15.43
2019-05-07T09:48:49.777Z,12.27
2019-05-07T09:51:23.315Z,10.47
2019-05-07T09:53:56.737Z,12.80
2019-05-07T09:56:31.937Z,12.37
2019-05-07T09:59:05.372Z,11.33
2019-05-07T10:01:38.926Z,15.17
2019-05-07T10:04:12.416Z,12.07
2019-05-07T10:06:45.889Z,11.37
2019-05-07T10:09:19.337Z,11.73
2019-05-07T10:11:54.448Z,12.73
2019-05-07T10:14:27.977Z,10.57
2019-05-07T10:17:03.070Z,9.77
2019-05-07T10:19:36.571Z,11.80
2019-05-07T10:22:10.075Z,9.53
2019-05-07T10:24:43.601Z,11.87
2019-05-07T10:27:17.117Z,9.47
2019-05-07T10:29:52.892Z,10.20
2019-05-07T10:32:25.920Z,12.37
2019-05-07T10:35:01.479Z,10.37
2019-05-07T10:37:34.977Z,13.57
2019-05-07T10:40:12.287Z,8.87
2019-05-07T10:42:46.135Z,8.23
2019-05-07T10:45:39.663Z,11.57
2019-05-07T10:48:26.822Z,11.17
2019-05-07T10:51:02.158Z,9.73
2019-05-07T10:53:35.577Z,9.67
2019-05-07T10:56:09.066Z,11.10
2019-05-07T10:58:42.624Z,9.77
2019-05-07T11:01:17.693Z,9.47
2019-05-07T11:03:51.762Z,11.13
2019-05-07T11:06:25.456Z,10.30
2019-05-07T11:08:58.874Z,12.20
2019-05-07T11:11:32.310Z,9.97
2019-05-07T11:14:05.833Z,10.30
2019-05-07T11:16:46.901Z,8.53
2019-05-07T11:19:22.113Z,12.40
2019-05-07T11:21:55.532Z,11.63
2019-05-07T11:24:28.928Z,9.87
2019-05-07T11:27:02.526Z,9.20
2019-05-07T11:29:36.645Z,10.63
2019-05-07T11:32:12.221Z,8.07
2019-05-07T11:34:45.615Z,9.17
2019-05-07T11:37:19.130Z,8.60
2019-05-07T11:39:52.541Z,11.60
2019-05-07T11:42:45.154Z,9.30
2019-05-07T11:45:22.656Z,10.27
2019-05-07T11:47:55.585Z,7.70
2019-05-07T11:50:33.496Z,7.40
2019-05-07T11:53:08.529Z,9.17
2019-05-07T11:55:42.199Z,9.97
2019-05-07T11:58:15.625Z,7.30
2019-05-07T12:00:53.725Z,9.10
2019-05-07T12:03:27.149Z,9.27
2019-05-07T12:06:02.103Z,8.97
2019-05-07T12:08:42.965Z,7.00
2019-05-07T12:11:11.955Z,8.13
2019-05-07T12:13:45.551Z,8.57
2019-05-07T12:16:19.057Z,8.83
2019-05-07T12:18:55.486Z,8.40
2019-05-07T12:21:27.695Z,8.77
2019-05-07T12:24:02.119Z,10.53
2019-05-07T12:26:37.403Z,7.90
2019-05-07T12:29:11.835Z,7.83
2019-05-07T12:31:47.109Z,10.00
2019-05-07T12:34:22.910Z,8.30
2019-05-07T12:36:56.423Z,7.23
2019-05-07T12:39:31.716Z,8.67
2019-05-07T12:42:05.501Z,8.43
2019-05-07T12:44:38.907Z,8.17
2019-05-07T12:47:12.471Z,10.13
2019-05-07T12:49:45.942Z,10.17
2019-05-07T12:52:23.795Z,8.50
2019-05-07T12:55:04.645Z,8.50
2019-05-07T12:57:38.063Z,8.70
2019-05-07T13:00:32.202Z,8.43
2019-05-07T13:03:09.187Z,9.47
2019-05-07T13:05:42.677Z,8.97
2019-05-07T13:08:16.152Z,7.07
2019-05-07T13:10:51.756Z,8.60
2019-05-07T13:13:24.708Z,7.70
2019-05-07T13:15:58.207Z,8.63
2019-05-07T13:18:31.993Z,9.30
2019-05-07T13:21:05.423Z,7.53
2019-05-07T13:23:38.826Z,9.90
2019-05-07T13:26:12.249Z,8.80
2019-05-07T13:28:45.644Z,8.93
2019-05-07T13:31:22.777Z,15.50
2019-05-07T13:33:56.824Z,6.00
2019-05-07T13:36:32.426Z,7.60
2019-05-07T13:39:12.356Z,6.77
2019-05-07T13:41:47.564Z,7.37
2019-05-07T13:44:28.646Z,6.83
2019-05-07T13:47:21.908Z,7.37
2019-05-07T13:49:55.757Z,7.80
2019-05-07T13:52:29.435Z,8.03
2019-05-07T13:55:03.017Z,7.33
2019-05-07T13:57:36.442Z,6.83
2019-05-07T14:00:14.025Z,7.87
2019-05-07T14:02:47.816Z,7.13
2019-05-07T14:05:21.767Z,9.17
2019-05-07T14:07:56.005Z,10.83
2019-05-07T14:10:29.514Z,6.77
2019-05-07T14:13:12.521Z,6.67
2019-05-07T14:15:39.979Z,9.23
2019-05-07T14:18:13.473Z,9.23
2019-05-07T14:20:46.868Z,5.77
2019-05-07T14:23:21.727Z,8.50
2019-05-07T14:25:55.238Z,6.63
2019-05-07T14:28:28.738Z,7.67
2019-05-07T14:31:02.229Z,5.80
2019-05-07T14:33:49.018Z,4.50
2019-05-07T14:36:32.010Z,6.00
2019-05-07T14:39:07.471Z,6.07
2019-05-07T14:41:42.653Z,5.97
2019-05-07T14:44:18.041Z,4.33
2019-05-07T14:46:54.310Z,5.50
2019-05-07T14:49:26.789Z,4.50
2019-05-07T14:52:00.329Z,4.60
2019-05-07T14:54:34.538Z,4.67
2019-05-07T14:57:08.107Z,5.33
2019-05-07T14:59:42.790Z,6.97
2019-05-07T15:02:16.419Z,5.30
2019-05-07T15:04:52.359Z,6.63
2019-05-07T15:07:25.188Z,8.77
2019-05-07T15:09:58.695Z,4.57
2019-05-07T15:12:33.037Z,5.90
2019-05-07T15:15:07.570Z,7.13
2019-05-07T15:17:59.375Z,5.47
2019-05-07T15:20:33.105Z,5.30
2019-05-07T15:23:08.429Z,10.13
2019-05-07T15:25:42.490Z,5.17
2019-05-07T15:28:16.737Z,8.17
2019-05-07T15:30:55.107Z,5.73
2019-05-07T15:33:28.945Z,4.60
2019-05-07T15:36:02.980Z,6.03
2019-05-07T15:38:36.578Z,6.17
2019-05-07T15:41:10.119Z,4.43
2019-05-07T15:43:45.965Z,3.57
2019-05-07T15:46:18.759Z,7.60
2019-05-07T15:48:52.672Z,5.83
2019-05-07T15:51:26.228Z,5.87
2019-05-07T15:54:00.454Z,4.03
2019-05-07T15:56:33.898Z,7.97
2019-05-07T15:59:07.300Z,5.87
2019-05-07T16:01:41.957Z,4.20
2019-05-07T16:04:22.266Z,6.17
2019-05-07T16:06:52.757Z,5.87
2019-05-07T16:09:27.564Z,4.30
2019-05-07T16:12:01.514Z,5.23
2019-05-07T16:14:34.935Z,3.33
2019-05-07T16:17:10.018Z,3.80
2019-05-07T16:19:43.529Z,8.03
2019-05-07T16:22:18.609Z,4.83
2019-05-07T16:24:52.016Z,4.97
2019-05-07T16:27:25.452Z,5.00
2019-05-07T16:29:58.915Z,4.93
2019-05-07T16:32:32.839Z,5.83
2019-05-07T16:35:07.144Z,5.57
2019-05-07T16:37:42.712Z,4.77
2019-05-07T16:40:16.318Z,4.70
2019-05-07T16:42:52.213Z,4.33
2019-05-07T16:45:24.868Z,5.73
2019-05-07T16:48:00.467Z,4.63
2019-05-07T16:50:33.565Z,7.03
2019-05-07T16:53:07.068Z,5.17
2019-05-07T16:55:40.476Z,5.90
2019-05-07T16:58:20.579Z,5.90
2019-05-07T17:00:55.079Z,6.37
2019-05-07T17:03:31.882Z,6.83
2019-05-07T17:06:05.415Z,5.20
2019-05-07T17:08:56.910Z,5.53
2019-05-07T17:11:32.032Z,6.80
2019-05-07T17:14:05.683Z,9.03
2019-05-07T17:16:39.297Z,5.47
2019-05-07T17:19:14.104Z,4.83
2019-05-07T17:21:47.622Z,7.03
2019-05-07T17:24:22.337Z,5.53
2019-05-07T17:26:55.920Z,5.17
2019-05-07T17:29:29.332Z,4.57
2019-05-07T17:32:02.742Z,5.77
2019-05-07T17:34:36.160Z,6.83
2019-05-07T17:37:09.554Z,5.30
2019-05-07T17:39:43.068Z,4.87
2019-05-07T17:42:16.467Z,5.43
2019-05-07T17:44:51.753Z,8.57
2019-05-07T17:47:25.221Z,5.23
2019-05-07T17:49:58.714Z,4.80
2019-05-07T17:52:32.432Z,4.17
2019-05-07T17:55:10.569Z,5.47
2019-05-07T17:57:44.436Z,5.80
2019-05-07T18:00:18.590Z,5.07
2019-05-07T18:03:08.694Z,3.93
2019-05-07T18:05:42.452Z,7.97
2019-05-07T18:08:15.974Z,5.13
2019-05-07T18:10:49.462Z,5.57
2019-05-07T18:13:22.891Z,5.53
2019-05-07T18:15:58.022Z,6.57
2019-05-07T18:18:32.795Z,4.60
2019-05-07T18:21:06.420Z,7.23
2019-05-07T18:23:39.885Z,4.17
2019-05-07T18:26:26.440Z,4.30
2019-05-07T18:28:48.472Z,5.77
2019-05-07T18:31:23.644Z,8.43
2019-05-07T18:33:58.695Z,4.67
2019-05-07T18:36:32.123Z,9.13
2019-05-07T18:39:07.504Z,5.47
2019-05-07T18:41:41.712Z,8.37
2019-05-07T18:44:16.114Z,5.47
2019-05-07T18:46:49.797Z,5.40
2019-05-07T18:49:23.212Z,6.20
2019-05-07T18:51:56.641Z,5.80
2019-05-07T18:54:31.467Z,8.07
2019-05-07T18:57:05.127Z,7.35
2019-05-07T18:59:38.693Z,10.03
2019-05-07T19:02:12.156Z,6.60
2019-05-07T19:04:45.610Z,6.37
2019-05-07T19:07:19.180Z,4.30
2019-05-07T19:09:52.850Z,4.83
2019-05-07T19:12:28.008Z,7.65
2019-05-07T19:15:02.892Z,6.80
2019-05-07T19:17:36.946Z,7.43
2019-05-07T19:20:12.276Z,5.93
2019-05-07T19:22:45.802Z,6.30
2019-05-07T19:25:19.229Z,5.77
2019-05-07T19:27:52.853Z,5.27
2019-05-07T19:30:26.381Z,4.63
2019-05-07T19:32:59.833Z,7.47
2019-05-07T19:35:33.305Z,5.90
2019-05-07T19:38:06.836Z,9.90
2019-05-07T19:40:42.017Z,8.83
2019-05-07T19:43:15.858Z,7.13
2019-05-07T19:45:49.699Z,7.33
2019-05-07T19:48:23.797Z,9.97
2019-05-07T19:50:57.185Z,7.50
2019-05-07T19:53:32.734Z,8.03
2019-05-07T19:56:10.715Z,8.88
2019-05-07T19:58:44.139Z,7.53
2019-05-07T20:01:19.299Z,7.97
2019-05-07T20:03:53.026Z,12.77
2019-05-07T20:06:26.467Z,5.67
2019-05-07T20:09:11.486Z,6.13
2019-05-07T20:11:48.305Z,7.03
2019-05-07T20:14:22.321Z,6.00
2019-05-07T20:16:55.930Z,7.03
2019-05-07T20:19:29.474Z,8.40
2019-05-07T20:22:02.884Z,7.17
2019-05-07T20:24:36.306Z,5.10
2019-05-07T20:27:09.693Z,6.23
2019-05-07T20:29:43.101Z,5.40
2019-05-07T20:32:16.490Z,4.67
2019-05-07T20:34:51.918Z,5.83
2019-05-07T20:37:25.024Z,4.37
2019-05-07T20:39:58.424Z,6.17
2019-05-07T20:42:32.448Z,6.10
2019-05-07T20:45:06.854Z,4.53
2019-05-07T20:47:42.149Z,3.93
2019-05-07T20:50:15.487Z,3.93
2019-05-07T20:52:48.867Z,5.30
2019-05-07T20:55:38.937Z,5.27
2019-05-07T20:58:12.884Z,6.27
2019-05-07T21:00:46.895Z,5.50
2019-05-07T21:03:20.285Z,7.57
2019-05-07T21:05:54.056Z,5.90
2019-05-07T21:08:27.439Z,6.53
2019-05-07T21:11:02.543Z,6.33
2019-05-07T21:13:36.060Z,4.77
2019-05-07T21:16:09.520Z,6.43
2019-05-07T21:18:43.001Z,5.80
2019-05-07T21:21:16.425Z,4.87
2019-05-07T21:23:49.815Z,7.20
2019-05-07T21:26:23.217Z,4.80
2019-05-07T21:28:56.628Z,6.07
2019-05-07T21:31:32.059Z,5.87
2019-05-07T21:34:05.171Z,5.63
2019-05-07T21:36:38.667Z,6.33
2019-05-07T21:39:13.031Z,6.97
2019-05-07T21:41:46.877Z,5.33
2019-05-07T21:44:22.755Z,9.20
2019-05-07T21:46:55.468Z,6.27
2019-05-07T21:49:28.855Z,6.27
2019-05-07T21:52:02.256Z,7.03
2019-05-07T21:54:37.388Z,6.10
2019-05-07T21:57:28.542Z,7.03
2019-05-07T22:00:15.352Z,4.77
2019-05-07T22:02:49.348Z,6.97
2019-05-07T22:05:22.753Z,6.23
2019-05-07T22:07:56.238Z,6.30
2019-05-07T22:10:29.692Z,7.17
2019-05-07T22:13:03.364Z,7.27
2019-05-07T22:15:36.877Z,6.67
2019-05-07T22:18:11.998Z,6.07
2019-05-07T22:20:45.584Z,5.70
2019-05-07T22:23:18.998Z,4.30
2019-05-07T22:25:52.409Z,6.00
2019-05-07T22:28:25.816Z,5.07
2019-05-07T22:31:17.028Z,5.53
2019-05-07T22:33:52.799Z,5.57
2019-05-07T22:36:26.321Z,7.27
2019-05-07T22:39:01.840Z,4.50
2019-05-07T22:41:35.115Z,5.13
2019-05-07T22:44:08.510Z,6.43
2019-05-07T22:46:42.299Z,5.80
2019-05-07T22:49:15.831Z,8.77
2019-05-07T22:51:49.224Z,5.53
2019-05-07T22:54:22.773Z,6.10
2019-05-07T22:56:57.779Z,6.20
2019-05-07T22:59:32.852Z,6.13
2019-05-07T23:02:06.423Z,5.20
2019-05-07T23:04:39.845Z,6.37
2019-05-07T23:07:13.243Z,5.90
2019-05-07T23:09:46.635Z,5.57
2019-05-07T23:12:21.973Z,7.57
2019-05-07T23:14:55.188Z,4.97
2019-05-07T23:17:28.580Z,6.73
2019-05-07T23:20:02.001Z,5.97
2019-05-07T23:22:35.398Z,6.70
2019-05-07T23:25:08.878Z,6.17
2019-05-07T23:27:42.275Z,6.50
2019-05-07T23:30:16.063Z,5.63
2019-05-07T23:32:49.452Z,5.60
2019-05-07T23:35:22.864Z,6.83
2019-05-07T23:37:56.236Z,5.33
2019-05-07T23:40:41.870Z,6.70
2019-05-07T23:43:17.120Z,7.63
2019-05-07T23:45:52.484Z,6.50
2019-05-07T23:48:25.633Z,7.83
2019-05-07T23:50:59.040Z,7.93
2019-05-07T23:53:32.445Z,7.53
2019-05-07T23:56:05.857Z,5.43
2019-05-07T23:58:39.267Z,6.60
